Time;durP1;ratioP1;P1;durP2;ratioP2;P2;SDS_P1;SDS_P2;PMS_P1;PMS_P2;Temp;Humidity;BMP_temperature;BMP_pressure;BME280_temperature;BME280_humidity;BME280_pressure;Samples;Min_cycle;Max_cycle;Signal;HPM_P1;HPM_P2
2023/08/17 00:01:41;;;;;;;8.27;2.43;;;14.90;93.80;;;;;;5053750;28;20449;-66
2023/08/17 00:04:07;;;;;;;3.90;2.70;;;14.90;93.80;;;;;;5053461;28;20174;-66
2023/08/17 00:06:33;;;;;;;5.77;2.40;;;14.90;93.80;;;;;;5052775;28;20397;-67
2023/08/17 00:08:58;;;;;;;3.77;2.20;;;14.90;94.90;;;;;;5053553;28;20520;-67
2023/08/17 00:11:24;;;;;;;6.40;2.27;;;14.90;99.50;;;;;;5053352;28;20175;-74
2023/08/17 00:13:50;;;;;;;2.17;1.97;;;14.90;99.90;;;;;;5053716;28;20182;-67
2023/08/17 00:16:16;;;;;;;2.13;2.00;;;14.90;99.90;;;;;;5051177;28;20527;-69
2023/08/17 00:18:42;;;;;;;2.47;2.30;;;14.90;99.90;;;;;;5053530;28;20217;-67
2023/08/17 00:21:08;;;;;;;2.57;2.17;;;15.00;99.90;;;;;;5052665;28;20465;-69
2023/08/17 00:23:34;;;;;;;2.57;2.17;;;15.00;99.90;;;;;;5053427;28;20404;-71
2023/08/17 00:26:00;;;;;;;2.20;1.90;;;15.00;99.90;;;;;;5052567;28;20186;-68
2023/08/17 00:28:26;;;;;;;2.37;2.10;;;14.90;99.90;;;;;;5055530;28;20941;-66
2023/08/17 00:30:51;;;;;;;3.70;2.10;;;15.00;99.90;;;;;;5053312;28;20177;-69
2023/08/17 00:33:17;;;;;;;2.60;2.40;;;15.00;99.90;;;;;;5052661;28;20209;-68
2023/08/17 00:35:43;;;;;;;2.80;2.60;;;15.10;99.90;;;;;;5052227;28;20178;-69
2023/08/17 00:38:08;;;;;;;2.40;2.00;;;15.10;99.90;;;;;;5053283;28;20194;-68
2023/08/17 00:40:35;;;;;;;3.87;2.23;;;15.20;99.90;;;;;;5052493;28;20199;-71
2023/08/17 00:43:00;;;;;;;2.00;1.90;;;15.20;99.90;;;;;;5053494;28;20189;-69
2023/08/17 00:45:26;;;;;;;2.70;2.50;;;15.30;99.90;;;;;;5052308;28;20913;-66
2023/08/17 00:47:56;;;;;;;2.33;2.13;;;15.30;99.90;;;;;;5053002;28;20544;-67
2023/08/17 00:50:24;;;;;;;2.40;2.20;;;15.20;99.90;;;;;;5063099;28;20432;-68
2023/08/17 00:52:52;;;;;;;4.80;1.87;;;15.30;99.90;;;;;;5072009;28;20768;-67
2023/08/17 00:55:18;;;;;;;7.93;2.40;;;15.20;99.90;;;;;;5072018;28;20409;-69
2023/08/17 00:57:44;;;;;;;4.03;2.50;;;15.30;99.90;;;;;;5071364;28;20459;-67
2023/08/17 01:00:13;;;;;;;2.30;2.10;;;15.30;99.90;;;;;;5072988;28;20459;-66
2023/08/17 01:02:42;;;;;;;2.13;1.87;;;15.30;99.90;;;;;;5072955;28;20404;-67
2023/08/17 01:05:08;;;;;;;3.17;2.27;;;15.30;99.90;;;;;;5055686;28;20433;-68
2023/08/17 01:07:33;;;;;;;3.23;2.27;;;15.30;99.90;;;;;;5052749;28;20910;-70
2023/08/17 01:10:00;;;;;;;2.43;2.10;;;15.30;99.90;;;;;;5052209;28;20866;-68
2023/08/17 01:12:31;;;;;;;2.23;2.13;;;15.30;99.90;;;;;;5062219;28;20444;-67
2023/08/17 01:15:07;;;;;;;5.93;2.30;;;15.30;99.90;;;;;;5071278;28;20828;-69
2023/08/17 01:17:58;;;;;;;4.73;2.43;;;15.30;99.90;;;;;;5071424;28;20436;-71
2023/08/17 01:20:24;;;;;;;3.30;2.87;;;15.30;99.90;;;;;;5052255;28;21036;-69
2023/08/17 01:22:56;;;;;;;1.97;1.80;;;15.30;99.90;;;;;;5052752;28;20906;-67
2023/08/17 01:25:22;;;;;;;2.27;2.07;;;15.30;99.90;;;;;;5051920;28;20467;-68
2023/08/17 01:27:49;;;;;;;2.50;2.00;;;15.30;99.90;;;;;;5063275;28;20452;-69
2023/08/17 01:30:17;;;;;;;5.63;2.10;;;15.20;99.90;;;;;;5071639;28;20442;-68
2023/08/17 01:33:10;;;;;;;2.43;2.23;;;15.20;99.90;;;;;;5065133;28;20829;-68
2023/08/17 01:35:48;;;;;;;2.17;1.97;;;15.20;99.90;;;;;;5051621;28;20751;-67
2023/08/17 01:38:20;;;;;;;2.23;1.70;;;15.10;99.90;;;;;;5069307;28;20447;-69
2023/08/17 01:40:50;;;;;;;2.20;2.03;;;14.90;99.90;;;;;;5076127;28;20463;-69
2023/08/17 01:43:16;;;;;;;10.30;2.20;;;15.00;99.90;;;;;;5074876;28;20425;-66
2023/08/17 01:45:42;;;;;;;2.03;1.90;;;15.00;99.90;;;;;;5075518;28;20769;-66
2023/08/17 01:48:08;;;;;;;2.20;2.10;;;15.00;99.90;;;;;;5075429;28;20416;-66
2023/08/17 01:50:34;;;;;;;1.93;1.77;;;15.00;99.90;;;;;;5055934;28;20437;-68
2023/08/17 01:53:00;;;;;;;1.93;1.80;;;14.90;99.90;;;;;;5054901;28;20182;-68
2023/08/17 01:55:26;;;;;;;1.77;1.67;;;14.80;99.90;;;;;;5055434;28;20178;-68
2023/08/17 01:57:52;;;;;;;1.87;1.73;;;14.80;99.90;;;;;;5062926;28;20187;-69
2023/08/17 02:00:18;;;;;;;2.40;2.20;;;14.70;99.90;;;;;;5056073;28;20464;-67
2023/08/17 02:02:44;;;;;;;2.53;2.00;;;14.70;99.90;;;;;;5056227;28;20441;-70
2023/08/17 02:05:10;;;;;;;5.77;2.60;;;14.70;99.90;;;;;;5056266;28;20256;-69
2023/08/17 02:07:35;;;;;;;4.90;1.97;;;14.80;99.90;;;;;;5055501;28;20198;-68
2023/08/17 02:10:01;;;;;;;1.70;1.60;;;14.80;99.90;;;;;;5056064;28;20248;-70
2023/08/17 02:12:27;;;;;;;4.07;2.33;;;14.90;99.90;;;;;;5057538;28;20179;-66
2023/08/17 02:14:53;;;;;;;2.90;1.83;;;15.00;99.90;;;;;;5075771;28;20256;-71
2023/08/17 02:17:21;;;;;;;2.57;2.27;;;15.00;99.90;;;;;;5075211;28;20261;-69
2023/08/17 02:19:47;;;;;;;2.50;2.00;;;15.00;99.90;;;;;;5075587;28;20912;-66
2023/08/17 02:22:13;;;;;;;3.90;2.70;;;15.10;99.90;;;;;;5074442;28;20924;-70
2023/08/17 02:24:39;;;;;;;4.33;2.00;;;15.10;99.90;;;;;;5074934;28;20404;-69
2023/08/17 02:27:05;;;;;;;5.33;1.90;;;15.10;99.90;;;;;;5073426;28;20493;-68
2023/08/17 02:29:30;;;;;;;4.13;2.20;;;15.20;99.90;;;;;;5074047;28;20512;-69
2023/08/17 02:31:56;;;;;;;3.37;2.07;;;15.20;99.90;;;;;;5075529;28;20642;-69
2023/08/17 02:34:22;;;;;;;6.17;2.87;;;15.20;99.90;;;;;;5074275;28;20170;-66
2023/08/17 02:36:47;;;;;;;5.00;2.67;;;15.20;99.90;;;;;;5071042;28;20197;-66
2023/08/17 02:39:13;;;;;;;5.10;2.17;;;15.20;99.90;;;;;;5071479;28;20188;-68
2023/08/17 02:41:39;;;;;;;5.30;1.90;;;15.30;99.90;;;;;;5074208;28;20662;-69
2023/08/17 02:44:05;;;;;;;2.80;1.83;;;15.40;99.90;;;;;;5073449;28;20186;-66
2023/08/17 02:46:30;;;;;;;4.10;2.07;;;15.40;99.90;;;;;;5074187;28;20220;-67
2023/08/17 02:48:56;;;;;;;4.77;2.17;;;15.40;99.90;;;;;;5074128;28;20195;-68
2023/08/17 02:51:22;;;;;;;3.60;2.63;;;15.40;99.90;;;;;;5073355;28;20213;-68
2023/08/17 02:53:47;;;;;;;4.30;1.87;;;15.40;99.90;;;;;;5075067;28;20193;-68
2023/08/17 02:56:13;;;;;;;2.70;2.50;;;15.40;99.90;;;;;;5074157;28;20159;-69
2023/08/17 02:58:42;;;;;;;2.87;2.27;;;15.50;99.90;;;;;;5067568;28;20205;-68
2023/08/17 03:01:08;;;;;;;6.63;2.10;;;15.60;99.90;;;;;;5054079;28;20205;-67
2023/08/17 03:03:34;;;;;;;1.97;1.77;;;15.60;99.90;;;;;;5053589;28;20409;-67
2023/08/17 03:06:02;;;;;;;1.93;1.70;;;15.60;99.90;;;;;;5053671;28;20429;-70
2023/08/17 03:08:27;;;;;;;5.80;2.97;;;15.50;99.90;;;;;;5054733;28;20420;-66
2023/08/17 03:10:53;;;;;;;2.17;2.03;;;15.50;99.90;;;;;;5055027;28;20405;-67
2023/08/17 03:13:19;;;;;;;2.97;2.40;;;15.50;99.90;;;;;;5054129;28;20182;-66
2023/08/17 03:15:44;;;;;;;2.27;2.10;;;15.60;99.90;;;;;;5073874;28;20638;-68
2023/08/17 03:18:10;;;;;;;3.50;2.20;;;15.60;99.90;;;;;;5072754;28;20285;-67
2023/08/17 03:20:36;;;;;;;3.13;1.50;;;15.60;99.90;;;;;;5072771;28;20712;-68
2023/08/17 03:23:02;;;;;;;3.93;1.90;;;15.70;99.90;;;;;;5074541;28;20174;-71
2023/08/17 03:25:27;;;;;;;3.73;2.10;;;15.70;99.90;;;;;;5073722;28;20154;-66
2023/08/17 03:27:53;;;;;;;2.70;2.10;;;15.70;99.90;;;;;;5074450;28;20304;-67
2023/08/17 03:30:19;;;;;;;2.33;2.13;;;15.60;99.90;;;;;;5072816;28;20264;-67
2023/08/17 03:32:44;;;;;;;4.13;2.00;;;15.60;99.90;;;;;;5074505;28;20212;-66
2023/08/17 03:35:10;;;;;;;2.43;1.93;;;15.70;99.90;;;;;;5072637;28;20227;-67
2023/08/17 03:37:37;;;;;;;3.93;2.10;;;15.70;99.90;;;;;;5074148;28;20194;-69
2023/08/17 03:40:03;;;;;;;1.70;1.60;;;15.70;99.90;;;;;;5074263;28;20257;-68
2023/08/17 03:42:29;;;;;;;4.67;2.00;;;15.70;99.90;;;;;;5069524;28;20441;-69
2023/08/17 03:44:55;;;;;;;5.50;2.00;;;15.70;99.90;;;;;;5054073;28;20466;-67
2023/08/17 03:47:21;;;;;;;4.93;1.90;;;15.70;99.90;;;;;;5052312;28;20647;-67
2023/08/17 03:49:47;;;;;;;2.87;1.83;;;15.70;99.90;;;;;;5065858;28;20531;-68
2023/08/17 03:52:12;;;;;;;3.80;2.47;;;15.70;99.90;;;;;;5074013;28;20166;-69
2023/08/17 03:54:38;;;;;;;4.30;2.90;;;15.70;99.90;;;;;;5073025;28;20182;-68
2023/08/17 03:57:04;;;;;;;4.13;3.10;;;15.70;99.90;;;;;;5071260;28;20221;-66
2023/08/17 03:59:29;;;;;;;10.80;2.50;;;15.70;99.90;;;;;;5072511;28;20189;-67
2023/08/17 04:01:55;;;;;;;2.03;1.83;;;15.60;99.90;;;;;;5073556;28;20282;-66
2023/08/17 04:04:21;;;;;;;3.67;1.97;;;15.60;99.90;;;;;;5073110;28;20162;-66
2023/08/17 04:06:46;;;;;;;2.47;1.93;;;15.70;99.90;;;;;;5059670;28;20183;-68
2023/08/17 04:09:12;;;;;;;2.90;1.90;;;15.70;99.90;;;;;;5052419;28;20162;-66
2023/08/17 04:11:38;;;;;;;3.70;1.77;;;15.70;99.90;;;;;;5053752;28;20163;-70
2023/08/17 04:14:04;;;;;;;2.93;2.73;;;15.70;99.90;;;;;;5062284;28;20228;-66
2023/08/17 04:16:29;;;;;;;2.03;1.90;;;15.70;99.90;;;;;;5071042;28;20630;-69
2023/08/17 04:18:55;;;;;;;3.90;1.90;;;15.70;99.90;;;;;;5071908;28;20875;-70
2023/08/17 04:21:21;;;;;;;2.97;1.97;;;15.70;99.90;;;;;;5073503;28;20225;-66
2023/08/17 04:23:47;;;;;;;3.73;1.97;;;15.70;99.90;;;;;;5073383;28;20654;-69
2023/08/17 04:26:13;;;;;;;9.83;1.93;;;15.70;99.90;;;;;;5072600;28;20396;-67
2023/08/17 04:28:38;;;;;;;3.87;2.57;;;15.70;99.90;;;;;;5050446;28;20244;-69
2023/08/17 04:31:04;;;;;;;7.90;1.90;;;15.70;99.90;;;;;;5053338;28;20182;-66
2023/08/17 04:33:30;;;;;;;4.20;1.57;;;15.70;99.90;;;;;;5053454;28;20174;-68
2023/08/17 04:35:56;;;;;;;4.50;2.13;;;15.70;99.90;;;;;;5051443;28;20840;-70
2023/08/17 04:38:22;;;;;;;2.10;1.47;;;15.70;99.90;;;;;;5057027;28;20190;-68
2023/08/17 04:40:47;;;;;;;3.00;2.03;;;15.70;99.90;;;;;;5051735;28;20199;-66
2023/08/17 04:43:13;;;;;;;3.40;1.83;;;15.60;99.90;;;;;;5053165;28;20666;-66
2023/08/17 04:45:39;;;;;;;6.33;2.17;;;15.60;99.90;;;;;;5065015;28;20194;-69
2023/08/17 04:48:06;;;;;;;5.23;2.47;;;15.70;99.90;;;;;;5069145;28;20720;-66
2023/08/17 04:50:32;;;;;;;4.67;2.40;;;15.70;99.90;;;;;;5069379;28;20181;-66
2023/08/17 04:52:58;;;;;;;4.67;2.10;;;15.70;99.90;;;;;;5072391;28;20472;-67
2023/08/17 04:55:23;;;;;;;2.13;1.90;;;15.70;99.90;;;;;;5070032;28;20886;-67
2023/08/17 04:57:49;;;;;;;1.70;1.60;;;15.80;99.90;;;;;;5071238;28;20815;-67
2023/08/17 05:00:16;;;;;;;1.80;1.70;;;15.90;99.90;;;;;;5071091;28;20201;-67
2023/08/17 05:02:41;;;;;;;5.37;2.50;;;15.90;99.90;;;;;;5072101;28;20166;-69
2023/08/17 05:05:09;;;;;;;2.83;1.70;;;15.80;99.90;;;;;;5071753;28;20444;-68
2023/08/17 05:07:34;;;;;;;2.03;1.73;;;15.90;99.90;;;;;;5072797;28;20420;-68
2023/08/17 05:10:01;;;;;;;3.63;1.30;;;15.90;99.90;;;;;;5067876;28;20425;-67
2023/08/17 05:12:27;;;;;;;3.40;1.93;;;15.90;99.90;;;;;;5051326;28;20163;-68
2023/08/17 05:14:53;;;;;;;2.60;1.33;;;15.90;99.90;;;;;;5059132;28;20424;-66
2023/08/17 05:17:19;;;;;;;9.40;1.97;;;15.90;99.90;;;;;;5072073;28;20474;-69
2023/08/17 05:19:45;;;;;;;2.70;1.50;;;15.90;99.90;;;;;;5072720;28;20232;-66
2023/08/17 05:22:12;;;;;;;1.90;1.80;;;15.90;99.90;;;;;;5071513;28;20662;-68
2023/08/17 05:24:38;;;;;;;2.80;2.00;;;15.90;99.90;;;;;;5055907;28;20300;-68
2023/08/17 05:27:04;;;;;;;3.07;2.50;;;16.00;99.90;;;;;;5051617;28;20421;-68
2023/08/17 05:29:29;;;;;;;2.70;1.73;;;16.00;99.90;;;;;;5053263;28;20425;-67
2023/08/17 05:31:55;;;;;;;1.83;1.60;;;16.10;99.90;;;;;;5072141;28;20416;-68
2023/08/17 05:34:22;;;;;;;2.53;1.80;;;16.10;99.90;;;;;;5072532;28;20170;-67
2023/08/17 05:36:48;;;;;;;2.47;2.27;;;16.10;99.90;;;;;;5070433;28;20253;-67
2023/08/17 05:39:14;;;;;;;1.63;1.50;;;16.10;99.90;;;;;;5071210;28;20533;-66
2023/08/17 05:41:40;;;;;;;6.10;2.20;;;16.10;99.90;;;;;;5072402;28;20444;-65
2023/08/17 05:44:06;;;;;;;9.90;3.43;;;16.10;99.90;;;;;;5072645;28;20159;-65
2023/08/17 05:46:33;;;;;;;3.67;1.80;;;16.10;99.90;;;;;;5069814;28;20263;-66
2023/08/17 05:48:59;;;;;;;2.90;1.70;;;16.10;99.90;;;;;;5072340;28;20412;-66
2023/08/17 05:51:25;;;;;;;3.80;1.90;;;16.20;99.90;;;;;;5066683;28;20762;-67
2023/08/17 05:53:51;;;;;;;2.80;2.03;;;16.20;99.90;;;;;;5063191;28;20431;-65
2023/08/17 05:56:17;;;;;;;3.70;1.73;;;16.20;99.90;;;;;;5071544;28;20158;-68
2023/08/17 05:58:42;;;;;;;2.37;1.93;;;16.20;99.90;;;;;;5054756;28;20274;-67
2023/08/17 06:01:09;;;;;;;6.37;2.33;;;16.30;99.90;;;;;;5063579;28;20233;-67
2023/08/17 06:03:36;;;;;;;1.93;1.67;;;16.30;99.90;;;;;;5068298;28;20186;-66
2023/08/17 06:06:03;;;;;;;3.90;2.03;;;16.40;99.90;;;;;;5071698;28;20397;-65
2023/08/17 06:08:29;;;;;;;3.37;2.10;;;16.40;99.90;;;;;;5071428;28;20515;-67
2023/08/17 06:10:55;;;;;;;2.20;2.00;;;16.40;99.90;;;;;;5072224;28;20412;-66
2023/08/17 06:13:21;;;;;;;2.30;2.07;;;16.40;99.90;;;;;;5072338;28;20419;-66
2023/08/17 06:15:47;;;;;;;2.67;2.23;;;16.40;99.90;;;;;;5069449;28;20205;-66
2023/08/17 06:18:12;;;;;;;3.80;2.23;;;16.40;99.90;;;;;;5072084;28;20583;-68
2023/08/17 06:20:38;;;;;;;2.70;1.93;;;16.50;99.90;;;;;;5072159;28;20506;-68
2023/08/17 06:23:04;;;;;;;2.30;2.13;;;16.60;99.90;;;;;;5072142;28;20194;-66
2023/08/17 06:25:30;;;;;;;2.40;1.93;;;16.50;99.90;;;;;;5070863;28;20181;-67
2023/08/17 06:27:56;;;;;;;3.53;1.70;;;16.60;99.90;;;;;;5069793;28;20225;-69
2023/08/17 06:30:22;;;;;;;2.17;1.97;;;16.60;99.90;;;;;;5055674;28;20409;-67
2023/08/17 06:32:50;;;;;;;2.70;2.10;;;16.60;99.90;;;;;;5065181;28;20429;-67
2023/08/17 06:35:15;;;;;;;2.63;2.23;;;16.60;99.90;;;;;;5073411;28;20413;-68
2023/08/17 06:37:41;;;;;;;1.60;1.50;;;16.50;99.90;;;;;;5075256;28;20420;-66
2023/08/17 06:40:10;;;;;;;2.00;1.80;;;16.50;99.90;;;;;;5060973;28;20201;-67
2023/08/17 06:42:36;;;;;;;5.37;2.57;;;16.60;99.90;;;;;;5075265;28;20233;-67
2023/08/17 06:45:03;;;;;;;6.00;2.33;;;16.60;99.90;;;;;;5072776;28;20435;-75
2023/08/17 06:47:29;;;;;;;2.20;2.00;;;16.60;99.90;;;;;;5074638;28;20244;-65
2023/08/17 06:49:57;;;;;;;2.37;1.90;;;16.60;99.90;;;;;;5073504;28;20448;-66
2023/08/17 06:52:24;;;;;;;2.27;1.80;;;16.60;99.90;;;;;;5075208;28;20166;-65
2023/08/17 06:54:49;;;;;;;4.43;2.20;;;16.60;99.90;;;;;;5068683;28;20524;-74
2023/08/17 06:57:15;;;;;;;3.83;2.13;;;16.70;99.90;;;;;;5054355;28;20426;-68
2023/08/17 06:59:41;;;;;;;4.17;2.40;;;16.70;99.90;;;;;;5056699;28;20182;-66
2023/08/17 07:02:07;;;;;;;3.27;2.97;;;16.70;99.90;;;;;;5055182;28;20187;-67
2023/08/17 07:04:32;;;;;;;6.30;2.17;;;16.70;99.90;;;;;;5055031;28;20246;-66
2023/08/17 07:06:58;;;;;;;2.20;2.10;;;16.80;99.90;;;;;;5051885;28;20285;-66
2023/08/17 07:09:24;;;;;;;13.03;2.20;;;16.70;99.90;;;;;;5055115;28;20177;-68
2023/08/17 07:11:50;;;;;;;1.93;1.70;;;16.70;99.90;;;;;;5054906;28;20175;-68
2023/08/17 07:14:15;;;;;;;5.73;2.30;;;16.70;99.90;;;;;;5054368;28;20678;-69
2023/08/17 07:16:41;;;;;;;3.00;2.40;;;16.70;99.90;;;;;;5054434;28;20405;-68
2023/08/17 07:19:07;;;;;;;2.77;2.00;;;16.70;99.90;;;;;;5054753;28;20528;-66
2023/08/17 07:21:32;;;;;;;3.20;2.00;;;16.70;99.90;;;;;;5054714;28;20203;-65
2023/08/17 07:24:10;;;;;;;4.20;2.37;;;16.70;99.90;;;;;;5052568;28;20166;-72
2023/08/17 07:26:36;;;;;;;2.60;1.80;;;16.60;99.90;;;;;;5054925;28;20577;-67
2023/08/17 07:29:02;;;;;;;4.37;2.17;;;16.60;99.90;;;;;;5053894;28;20423;-69
2023/08/17 07:31:27;;;;;;;2.10;2.00;;;16.70;99.90;;;;;;5054696;28;20167;-66
2023/08/17 07:33:53;;;;;;;1.97;1.70;;;16.80;99.90;;;;;;5054395;28;20175;-67
2023/08/17 07:36:19;;;;;;;3.40;1.90;;;16.80;99.90;;;;;;5053431;28;20220;-68
2023/08/17 07:38:44;;;;;;;2.73;2.20;;;16.80;99.90;;;;;;5054151;28;20195;-65
2023/08/17 07:41:10;;;;;;;4.10;2.20;;;16.80;99.90;;;;;;5065225;28;20290;-68
2023/08/17 07:43:36;;;;;;;2.27;2.07;;;16.80;99.90;;;;;;5055136;28;20179;-65
2023/08/17 07:46:01;;;;;;;4.23;2.53;;;16.80;99.90;;;;;;5053217;28;20166;-67
2023/08/17 07:48:27;;;;;;;6.93;2.07;;;16.90;99.90;;;;;;5054057;28;20198;-67
2023/08/17 07:50:53;;;;;;;3.83;2.20;;;16.90;99.90;;;;;;5054143;28;20173;-66
2023/08/17 07:53:19;;;;;;;4.23;1.60;;;16.90;99.90;;;;;;5054077;28;20182;-67
2023/08/17 07:55:45;;;;;;;5.63;2.07;;;16.90;99.90;;;;;;5070489;28;20516;-66
2023/08/17 07:58:11;;;;;;;4.80;2.60;;;16.90;99.90;;;;;;5060700;28;20460;-68
2023/08/17 08:00:37;;;;;;;2.73;2.53;;;17.10;99.90;;;;;;5053384;28;20457;-67
2023/08/17 08:03:03;;;;;;;3.77;2.30;;;17.00;99.90;;;;;;5053349;28;20898;-70
2023/08/17 08:05:29;;;;;;;6.30;1.87;;;17.00;99.90;;;;;;5052821;28;20198;-67
2023/08/17 08:07:55;;;;;;;2.13;1.93;;;17.10;99.90;;;;;;5057779;28;20964;-67
2023/08/17 08:10:20;;;;;;;2.90;2.00;;;17.10;99.90;;;;;;5057094;28;20677;-65
2023/08/17 08:12:46;;;;;;;2.17;1.93;;;17.20;99.90;;;;;;5059814;28;20204;-66
2023/08/17 08:15:12;;;;;;;3.00;2.30;;;17.20;99.90;;;;;;5072775;28;20166;-67
2023/08/17 08:17:38;;;;;;;3.20;2.13;;;17.30;99.90;;;;;;5073469;28;20597;-67
2023/08/17 08:20:04;;;;;;;2.67;1.87;;;17.30;99.90;;;;;;5073614;28;20188;-65
2023/08/17 08:22:30;;;;;;;2.70;1.90;;;17.40;99.90;;;;;;5068908;28;20178;-65
2023/08/17 08:24:57;;;;;;;3.40;2.17;;;17.40;99.90;;;;;;5068800;28;20485;-69
2023/08/17 08:27:23;;;;;;;5.10;1.67;;;17.40;99.90;;;;;;5061925;28;20197;-65
2023/08/17 08:29:49;;;;;;;9.50;2.03;;;17.40;99.90;;;;;;5053147;28;20425;-68
2023/08/17 08:32:14;;;;;;;2.13;1.77;;;17.50;99.90;;;;;;5053424;28;20432;-66
2023/08/17 08:34:40;;;;;;;2.10;1.80;;;17.50;99.90;;;;;;5053359;28;20202;-65
2023/08/17 08:37:06;;;;;;;3.73;2.37;;;17.50;99.90;;;;;;5052510;28;20264;-68
2023/08/17 08:39:32;;;;;;;2.23;1.90;;;17.50;99.90;;;;;;5053259;28;20208;-66
2023/08/17 08:41:58;;;;;;;2.40;2.13;;;17.40;99.90;;;;;;5062068;28;20718;-69
2023/08/17 08:44:24;;;;;;;3.00;1.90;;;17.40;99.90;;;;;;5057935;28;20643;-68
2023/08/17 08:46:53;;;;;;;2.70;2.00;;;17.40;99.90;;;;;;5052090;28;20394;-68
2023/08/17 08:49:22;;;;;;;2.53;1.80;;;17.40;99.90;;;;;;5052425;28;20297;-65
2023/08/17 08:51:52;;;;;;;4.70;1.90;;;17.50;99.90;;;;;;5053177;28;20398;-68
2023/08/17 08:54:25;;;;;;;3.43;1.70;;;17.50;99.90;;;;;;5052921;28;20922;-65
2023/08/17 08:57:03;;;;;;;2.00;1.57;;;17.50;99.90;;;;;;5067125;28;20441;-67
2023/08/17 08:59:29;;;;;;;2.10;2.00;;;17.40;99.90;;;;;;5073024;28;20400;-68
2023/08/17 09:01:57;;;;;;;3.67;2.43;;;17.50;99.90;;;;;;5072384;28;20436;-71
2023/08/17 09:04:23;;;;;;;9.70;1.87;;;17.50;99.90;;;;;;5071016;28;20245;-67
2023/08/17 09:06:50;;;;;;;2.80;2.07;;;17.50;99.90;;;;;;5069513;28;20944;-69
2023/08/17 09:09:18;;;;;;;1.80;1.70;;;17.40;99.90;;;;;;5072779;28;20925;-68
2023/08/17 09:11:44;;;;;;;14.93;3.23;;;17.30;99.90;;;;;;5071170;28;20428;-69
2023/08/17 09:14:09;;;;;;;2.33;2.00;;;17.30;99.90;;;;;;5072821;28;20920;-67
2023/08/17 09:16:35;;;;;;;4.93;2.40;;;17.30;99.90;;;;;;5071929;28;20174;-66
2023/08/17 09:19:01;;;;;;;2.80;1.67;;;17.30;99.90;;;;;;5065609;28;20249;-68
2023/08/17 09:21:31;;;;;;;3.87;2.07;;;17.40;99.90;;;;;;5051948;28;20199;-66
2023/08/17 09:23:57;;;;;;;4.10;2.10;;;17.40;99.90;;;;;;5051423;28;20171;-66
2023/08/17 09:26:26;;;;;;;7.33;2.47;;;17.40;99.90;;;;;;5058996;28;20446;-65
2023/08/17 09:28:54;;;;;;;2.53;2.10;;;17.40;99.90;;;;;;5072554;28;20196;-66
2023/08/17 09:31:24;;;;;;;5.10;2.40;;;17.50;99.90;;;;;;5072608;28;20558;-66
2023/08/17 09:33:51;;;;;;;5.30;2.30;;;17.50;99.90;;;;;;5072221;28;20404;-68
2023/08/17 09:36:26;;;;;;;3.23;2.30;;;17.50;99.90;;;;;;5056558;28;20430;-68
2023/08/17 09:38:52;;;;;;;5.30;2.27;;;17.50;99.90;;;;;;5054832;28;20451;-67
2023/08/17 09:41:19;;;;;;;4.60;3.13;;;17.50;99.90;;;;;;5053465;28;20859;-66
2023/08/17 09:43:45;;;;;;;7.93;2.37;;;17.60;99.90;;;;;;5082451;28;20450;-68
2023/08/17 09:46:11;;;;;;;3.27;2.30;;;17.60;99.90;;;;;;5051608;28;20394;-66
2023/08/17 09:48:37;;;;;;;3.33;2.80;;;17.50;99.90;;;;;;5052231;28;20424;-66
2023/08/17 09:51:05;;;;;;;8.80;2.50;;;17.40;99.90;;;;;;5052493;28;20171;-67
2023/08/17 09:53:36;;;;;;;3.23;2.40;;;17.40;99.90;;;;;;5052322;28;20277;-68
2023/08/17 09:56:03;;;;;;;2.50;2.37;;;17.50;99.90;;;;;;5061923;28;20518;-66
2023/08/17 09:58:29;;;;;;;6.63;2.87;;;17.50;99.90;;;;;;5072360;28;20420;-66
2023/08/17 10:00:56;;;;;;;2.33;2.13;;;17.50;99.90;;;;;;5074426;28;20805;-67
2023/08/17 10:03:23;;;;;;;2.47;2.27;;;17.50;99.90;;;;;;5075242;28;20257;-66
2023/08/17 10:05:56;;;;;;;3.20;2.90;;;17.50;99.90;;;;;;5075198;28;20396;-65
2023/08/17 10:08:22;;;;;;;4.57;2.90;;;17.40;1.00;;;;;;5076056;28;20905;-65
2023/08/17 10:10:49;;;;;;;3.27;3.00;;;17.30;1.00;;;;;;5072770;28;20435;-65
2023/08/17 10:13:45;;;;;;;2.73;2.53;;;17.40;1.00;;;;;;5075420;28;20537;-68
2023/08/17 10:16:28;;;;;;;4.00;3.60;;;17.40;1.00;;;;;;5075137;28;20400;-65
2023/08/17 10:19:06;;;;;;;7.27;3.53;;;17.50;1.00;;;;;;5057436;28;20453;-66
2023/08/17 10:21:42;;;;;;;3.73;2.60;;;17.50;1.00;;;;;;5055805;28;20821;-69
2023/08/17 10:24:08;;;;;;;4.47;2.97;;;17.50;1.00;;;;;;5055533;28;20427;-67
2023/08/17 10:26:34;;;;;;;8.13;3.20;;;17.50;1.00;;;;;;5054843;28;20481;-68
2023/08/17 10:29:02;;;;;;;9.70;3.43;;;17.40;1.00;;;;;;5055688;28;20513;-68
2023/08/17 10:31:29;;;;;;;3.53;3.13;;;17.40;1.00;;;;;;5055067;28;20397;-68
2023/08/17 10:33:57;;;;;;;3.50;3.20;;;17.40;1.00;;;;;;5055556;28;20876;-68
2023/08/17 10:36:23;;;;;;;10.30;4.00;;;17.30;1.00;;;;;;5053471;28;20412;-68
2023/08/17 10:39:18;;;;;;;5.67;3.33;;;17.30;1.00;;;;;;5073753;28;20998;-68
2023/08/17 10:41:48;;;;;;;4.30;3.47;;;17.20;1.00;;;;;;5075269;28;20454;-66
2023/08/17 10:44:14;;;;;;;4.43;2.80;;;17.20;1.00;;;;;;5075478;28;20931;-69
2023/08/17 10:46:40;;;;;;;7.87;3.20;;;17.30;43.90;;;;;;5074593;28;20416;-67
2023/08/17 10:49:23;;;;;;;3.90;3.53;;;17.30;86.20;;;;;;5074622;28;20249;-65
2023/08/17 10:52:06;;;;;;;6.50;3.47;;;17.30;94.00;;;;;;5073274;28;20959;-65
2023/08/17 10:54:41;;;;;;;4.53;3.30;;;17.30;99.90;;;;;;5072093;28;20523;-64
2023/08/17 10:57:30;;;;;;;3.63;3.30;;;17.40;99.90;;;;;;5074233;28;20458;-66
2023/08/17 11:00:13;;;;;;;8.33;4.33;;;17.30;99.90;;;;;;5073814;28;20408;-68
2023/08/17 11:02:39;;;;;;;4.63;4.10;;;17.40;99.90;;;;;;5075169;28;20412;-67
2023/08/17 11:05:05;;;;;;;4.23;3.83;;;17.40;99.90;;;;;;5072927;28;20428;-66
2023/08/17 11:07:43;;;;;;;7.17;4.07;;;17.30;99.90;;;;;;5074533;28;20550;-67
2023/08/17 11:10:18;;;;;;;4.10;3.20;;;17.20;99.90;;;;;;5073242;28;20412;-67
2023/08/17 11:12:43;;;;;;;4.23;3.83;;;17.30;99.90;;;;;;5073386;28;20414;-66
2023/08/17 11:15:09;;;;;;;10.13;4.23;;;17.30;99.90;;;;;;5073964;28;20479;-67
2023/08/17 11:17:35;;;;;;;4.53;3.70;;;17.30;99.90;;;;;;5073714;28;20700;-67
2023/08/17 11:20:01;;;;;;;6.13;3.70;;;17.40;99.90;;;;;;5073283;28;20535;-66
2023/08/17 11:22:28;;;;;;;7.73;3.53;;;17.40;99.90;;;;;;5074610;28;20166;-67
2023/08/17 11:24:54;;;;;;;4.10;3.70;;;17.40;99.90;;;;;;5072433;28;20393;-68
2023/08/17 11:27:20;;;;;;;9.40;3.67;;;17.40;99.90;;;;;;5053414;28;20475;-67
2023/08/17 11:29:47;;;;;;;6.93;3.70;;;17.30;99.90;;;;;;5054525;28;20878;-68
2023/08/17 11:32:16;;;;;;;3.67;3.37;;;17.40;99.90;;;;;;5053490;28;20504;-68
2023/08/17 11:34:42;;;;;;;4.60;4.10;;;17.40;99.90;;;;;;5073493;28;20465;-65
2023/08/17 11:37:10;;;;;;;4.00;3.57;;;17.40;99.90;;;;;;5073483;28;20432;-65
2023/08/17 11:39:36;;;;;;;3.80;3.50;;;17.30;99.90;;;;;;5074388;28;20206;-68
2023/08/17 11:42:02;;;;;;;6.03;3.70;;;17.40;99.90;;;;;;5072328;28;20488;-68
2023/08/17 11:44:28;;;;;;;5.37;4.03;;;17.50;99.90;;;;;;5073767;28;20202;-66
2023/08/17 11:46:53;;;;;;;9.37;3.60;;;17.60;99.90;;;;;;5073392;28;20223;-66
2023/08/17 11:49:19;;;;;;;6.20;4.30;;;17.50;99.90;;;;;;5072902;28;20388;-65
2023/08/17 11:51:45;;;;;;;5.00;3.57;;;17.50;99.90;;;;;;5074136;28;20257;-65
2023/08/17 11:54:11;;;;;;;5.37;4.83;;;17.70;99.90;;;;;;5073996;28;20246;-68
2023/08/17 11:56:41;;;;;;;4.93;3.07;;;17.80;99.90;;;;;;5071424;28;20543;-67
2023/08/17 11:59:13;;;;;;;5.63;3.30;;;17.80;99.90;;;;;;5073940;28;20397;-66
2023/08/17 12:01:40;;;;;;;3.80;3.33;;;17.90;99.90;;;;;;5073717;28;20448;-66
2023/08/17 12:04:06;;;;;;;7.80;3.30;;;17.80;99.90;;;;;;5073330;28;20401;-65
2023/08/17 12:06:32;;;;;;;9.50;3.43;;;17.80;99.90;;;;;;5057094;28;20440;-67
2023/08/17 12:08:58;;;;;;;5.40;4.10;;;17.70;99.90;;;;;;5053827;28;20425;-66
2023/08/17 12:11:25;;;;;;;4.63;3.10;;;17.70;99.90;;;;;;5059240;28;20929;-67
2023/08/17 12:13:51;;;;;;;8.43;3.57;;;17.80;99.90;;;;;;5073658;28;20170;-66
2023/08/17 12:16:18;;;;;;;4.80;3.37;;;17.80;99.90;;;;;;5072655;28;20958;-66
2023/08/17 12:18:48;;;;;;;3.97;3.67;;;17.70;99.90;;;;;;5071429;28;20428;-66
2023/08/17 12:21:14;;;;;;;5.10;3.70;;;17.70;99.90;;;;;;5058701;28;20505;-65
2023/08/17 12:23:40;;;;;;;11.33;4.57;;;17.70;99.90;;;;;;5071003;28;20917;-65
2023/08/17 12:26:05;;;;;;;5.17;3.77;;;17.60;99.90;;;;;;5065990;28;20219;-65
2023/08/17 12:28:32;;;;;;;3.90;3.60;;;17.70;99.90;;;;;;5053257;28;20581;-65
2023/08/17 12:31:02;;;;;;;7.73;3.30;;;17.70;99.90;;;;;;5053358;28;20167;-66
2023/08/17 12:33:28;;;;;;;5.20;3.00;;;17.70;99.90;;;;;;5053531;28;20406;-66
2023/08/17 12:35:55;;;;;;;5.73;3.77;;;17.60;99.90;;;;;;5052300;28;20428;-65
2023/08/17 12:38:23;;;;;;;7.43;3.40;;;17.50;99.90;;;;;;5052888;28;20424;-68
2023/08/17 12:40:49;;;;;;;3.47;3.17;;;17.50;99.90;;;;;;5059149;28;20533;-65
2023/08/17 12:43:14;;;;;;;6.07;3.13;;;17.50;99.90;;;;;;5073209;28;20443;-67
2023/08/17 12:45:40;;;;;;;8.53;3.50;;;17.60;99.90;;;;;;5070931;28;20658;-66
2023/08/17 12:48:06;;;;;;;9.30;3.80;;;17.70;99.90;;;;;;5073138;28;20236;-67